sensor_id;sensor_type;location;lat;lon;timestamp;P1;durP1;ratioP1;P2;durP2;ratioP2
10226;SDS011;15634;48.766;2.272;2023-03-04T00:01:52;43.67;;;20.98;;
10226;SDS011;15634;48.766;2.272;2023-03-04T00:04:20;42.35;;;19.50;;
10226;SDS011;15634;48.766;2.272;2023-03-04T00:06:47;40.33;;;21.15;;
10226;SDS011;15634;48.766;2.272;2023-03-04T00:09:13;38.58;;;19.33;;
10226;SDS011;15634;48.766;2.272;2023-03-04T00:11:40;43.80;;;20.10;;
10226;SDS011;15634;48.766;2.272;2023-03-04T00:14:07;44.15;;;21.13;;
10226;SDS011;15634;48.766;2.272;2023-03-04T00:16:33;43.03;;;20.58;;
10226;SDS011;15634;48.766;2.272;2023-03-04T00:19:00;42.13;;;21.33;;
10226;SDS011;15634;48.766;2.272;2023-03-04T00:21:29;46.28;;;22.30;;
10226;SDS011;15634;48.766;2.272;2023-03-04T00:23:55;41.08;;;19.95;;
10226;SDS011;15634;48.766;2.272;2023-03-04T00:26:22;41.72;;;21.25;;
10226;SDS011;15634;48.766;2.272;2023-03-04T00:28:49;44.35;;;21.17;;
10226;SDS011;15634;48.766;2.272;2023-03-04T00:31:16;41.25;;;20.42;;
10226;SDS011;15634;48.766;2.272;2023-03-04T00:33:42;43.30;;;20.45;;
10226;SDS011;15634;48.766;2.272;2023-03-04T00:36:09;44.42;;;20.27;;
10226;SDS011;15634;48.766;2.272;2023-03-04T00:38:37;41.72;;;21.27;;
10226;SDS011;15634;48.766;2.272;2023-03-04T00:41:04;40.65;;;20.85;;
10226;SDS011;15634;48.766;2.272;2023-03-04T00:43:31;42.22;;;21.20;;
10226;SDS011;15634;48.766;2.272;2023-03-04T00:45:58;36.58;;;18.80;;
10226;SDS011;15634;48.766;2.272;2023-03-04T00:48:25;41.67;;;20.83;;
10226;SDS011;15634;48.766;2.272;2023-03-04T00:50:51;42.75;;;21.13;;
10226;SDS011;15634;48.766;2.272;2023-03-04T00:53:18;40.00;;;21.15;;
10226;SDS011;15634;48.766;2.272;2023-03-04T00:55:46;44.95;;;22.13;;
10226;SDS011;15634;48.766;2.272;2023-03-04T00:58:12;45.63;;;22.92;;
10226;SDS011;15634;48.766;2.272;2023-03-04T01:00:39;47.33;;;22.15;;
10226;SDS011;15634;48.766;2.272;2023-03-04T01:03:06;45.28;;;22.13;;
10226;SDS011;15634;48.766;2.272;2023-03-04T01:05:33;41.15;;;20.95;;
10226;SDS011;15634;48.766;2.272;2023-03-04T01:08:00;40.30;;;21.67;;
10226;SDS011;15634;48.766;2.272;2023-03-04T01:10:26;47.42;;;22.45;;
10226;SDS011;15634;48.766;2.272;2023-03-04T01:12:54;48.08;;;21.70;;
10226;SDS011;15634;48.766;2.272;2023-03-04T01:15:21;48.20;;;23.25;;
10226;SDS011;15634;48.766;2.272;2023-03-04T01:17:48;41.63;;;21.83;;
10226;SDS011;15634;48.766;2.272;2023-03-04T01:20:15;40.38;;;21.60;;
10226;SDS011;15634;48.766;2.272;2023-03-04T01:22:42;44.35;;;22.63;;
10226;SDS011;15634;48.766;2.272;2023-03-04T01:25:09;42.70;;;23.08;;
10226;SDS011;15634;48.766;2.272;2023-03-04T01:27:35;46.80;;;24.38;;
10226;SDS011;15634;48.766;2.272;2023-03-04T01:30:04;44.55;;;22.60;;
10226;SDS011;15634;48.766;2.272;2023-03-04T01:32:32;47.33;;;24.02;;
10226;SDS011;15634;48.766;2.272;2023-03-04T01:34:58;50.53;;;24.77;;
10226;SDS011;15634;48.766;2.272;2023-03-04T01:37:25;47.47;;;24.55;;
10226;SDS011;15634;48.766;2.272;2023-03-04T01:39:52;44.05;;;24.17;;
10226;SDS011;15634;48.766;2.272;2023-03-04T01:42:20;48.75;;;24.27;;
10226;SDS011;15634;48.766;2.272;2023-03-04T01:44:48;46.22;;;24.10;;
10226;SDS011;15634;48.766;2.272;2023-03-04T01:47:16;44.15;;;25.27;;
10226;SDS011;15634;48.766;2.272;2023-03-04T01:49:43;46.03;;;24.35;;
10226;SDS011;15634;48.766;2.272;2023-03-04T01:52:11;48.30;;;25.13;;
10226;SDS011;15634;48.766;2.272;2023-03-04T01:54:38;52.28;;;26.45;;
10226;SDS011;15634;48.766;2.272;2023-03-04T01:57:06;50.92;;;25.92;;
10226;SDS011;15634;48.766;2.272;2023-03-04T01:59:41;46.90;;;24.98;;
10226;SDS011;15634;48.766;2.272;2023-03-04T02:02:08;50.97;;;25.75;;
10226;SDS011;15634;48.766;2.272;2023-03-04T02:04:36;50.53;;;25.65;;
10226;SDS011;15634;48.766;2.272;2023-03-04T02:07:03;47.55;;;24.42;;
10226;SDS011;15634;48.766;2.272;2023-03-04T02:09:30;52.50;;;25.27;;
10226;SDS011;15634;48.766;2.272;2023-03-04T02:11:57;50.03;;;26.45;;
10226;SDS011;15634;48.766;2.272;2023-03-04T02:14:24;54.28;;;25.52;;
10226;SDS011;15634;48.766;2.272;2023-03-04T02:16:50;48.03;;;25.42;;
10226;SDS011;15634;48.766;2.272;2023-03-04T02:19:19;47.03;;;26.20;;
10226;SDS011;15634;48.766;2.272;2023-03-04T02:21:54;51.05;;;25.58;;
10226;SDS011;15634;48.766;2.272;2023-03-04T02:24:23;46.47;;;25.50;;
10226;SDS011;15634;48.766;2.272;2023-03-04T02:26:53;52.92;;;25.05;;
10226;SDS011;15634;48.766;2.272;2023-03-04T02:29:19;43.97;;;24.60;;
10226;SDS011;15634;48.766;2.272;2023-03-04T02:31:47;51.35;;;26.17;;
10226;SDS011;15634;48.766;2.272;2023-03-04T02:34:15;45.30;;;25.95;;
10226;SDS011;15634;48.766;2.272;2023-03-04T02:36:44;54.72;;;27.00;;
10226;SDS011;15634;48.766;2.272;2023-03-04T02:39:12;51.83;;;25.13;;
10226;SDS011;15634;48.766;2.272;2023-03-04T02:41:40;46.28;;;25.60;;
10226;SDS011;15634;48.766;2.272;2023-03-04T02:44:10;48.03;;;25.88;;
10226;SDS011;15634;48.766;2.272;2023-03-04T02:46:41;45.63;;;24.77;;
10226;SDS011;15634;48.766;2.272;2023-03-04T02:49:07;50.88;;;26.38;;
10226;SDS011;15634;48.766;2.272;2023-03-04T02:51:34;50.38;;;26.60;;
10226;SDS011;15634;48.766;2.272;2023-03-04T02:54:02;44.28;;;25.77;;
10226;SDS011;15634;48.766;2.272;2023-03-04T02:56:28;46.92;;;24.77;;
10226;SDS011;15634;48.766;2.272;2023-03-04T02:58:55;47.08;;;25.60;;
10226;SDS011;15634;48.766;2.272;2023-03-04T03:01:23;45.28;;;24.42;;
10226;SDS011;15634;48.766;2.272;2023-03-04T03:03:53;47.10;;;25.50;;
10226;SDS011;15634;48.766;2.272;2023-03-04T03:06:20;46.63;;;25.58;;
10226;SDS011;15634;48.766;2.272;2023-03-04T03:08:46;47.05;;;25.88;;
10226;SDS011;15634;48.766;2.272;2023-03-04T03:11:13;56.60;;;26.30;;
10226;SDS011;15634;48.766;2.272;2023-03-04T03:13:40;47.42;;;25.02;;
10226;SDS011;15634;48.766;2.272;2023-03-04T03:16:06;48.85;;;25.30;;
10226;SDS011;15634;48.766;2.272;2023-03-04T03:18:34;50.03;;;26.23;;
10226;SDS011;15634;48.766;2.272;2023-03-04T03:21:01;48.80;;;27.08;;
10226;SDS011;15634;48.766;2.272;2023-03-04T03:23:28;44.60;;;24.70;;
10226;SDS011;15634;48.766;2.272;2023-03-04T03:25:54;50.10;;;26.73;;
10226;SDS011;15634;48.766;2.272;2023-03-04T03:28:21;53.35;;;27.75;;
10226;SDS011;15634;48.766;2.272;2023-03-04T03:30:47;47.90;;;26.00;;
10226;SDS011;15634;48.766;2.272;2023-03-04T03:33:14;48.80;;;26.42;;
10226;SDS011;15634;48.766;2.272;2023-03-04T03:35:42;45.75;;;27.05;;
10226;SDS011;15634;48.766;2.272;2023-03-04T03:38:09;50.42;;;26.65;;
10226;SDS011;15634;48.766;2.272;2023-03-04T03:40:36;52.30;;;26.92;;
10226;SDS011;15634;48.766;2.272;2023-03-04T03:43:02;47.25;;;25.90;;
10226;SDS011;15634;48.766;2.272;2023-03-04T03:45:29;49.35;;;26.52;;
10226;SDS011;15634;48.766;2.272;2023-03-04T03:47:56;49.85;;;26.48;;
10226;SDS011;15634;48.766;2.272;2023-03-04T03:50:22;51.50;;;27.02;;
10226;SDS011;15634;48.766;2.272;2023-03-04T03:52:50;48.67;;;26.23;;
10226;SDS011;15634;48.766;2.272;2023-03-04T03:55:17;51.90;;;27.45;;
10226;SDS011;15634;48.766;2.272;2023-03-04T03:57:44;51.70;;;28.13;;
10226;SDS011;15634;48.766;2.272;2023-03-04T04:00:11;54.35;;;28.42;;
10226;SDS011;15634;48.766;2.272;2023-03-04T04:02:38;50.17;;;27.15;;
10226;SDS011;15634;48.766;2.272;2023-03-04T04:05:06;55.67;;;27.40;;
10226;SDS011;15634;48.766;2.272;2023-03-04T04:07:34;55.05;;;27.77;;
10226;SDS011;15634;48.766;2.272;2023-03-04T04:10:03;52.75;;;26.67;;
10226;SDS011;15634;48.766;2.272;2023-03-04T04:12:30;54.42;;;28.52;;
10226;SDS011;15634;48.766;2.272;2023-03-04T04:14:57;51.38;;;26.65;;
10226;SDS011;15634;48.766;2.272;2023-03-04T04:17:24;44.33;;;23.13;;
10226;SDS011;15634;48.766;2.272;2023-03-04T04:19:51;52.50;;;27.77;;
10226;SDS011;15634;48.766;2.272;2023-03-04T04:22:18;52.63;;;26.60;;
10226;SDS011;15634;48.766;2.272;2023-03-04T04:24:46;51.97;;;26.77;;
10226;SDS011;15634;48.766;2.272;2023-03-04T04:27:14;49.50;;;26.65;;
10226;SDS011;15634;48.766;2.272;2023-03-04T04:29:40;49.25;;;26.58;;
10226;SDS011;15634;48.766;2.272;2023-03-04T04:32:07;51.80;;;26.20;;
10226;SDS011;15634;48.766;2.272;2023-03-04T04:34:37;53.00;;;27.63;;
10226;SDS011;15634;48.766;2.272;2023-03-04T04:37:03;49.55;;;26.08;;
10226;SDS011;15634;48.766;2.272;2023-03-04T04:39:30;49.72;;;26.05;;
10226;SDS011;15634;48.766;2.272;2023-03-04T04:41:57;46.95;;;24.95;;
10226;SDS011;15634;48.766;2.272;2023-03-04T04:44:25;49.22;;;26.90;;
10226;SDS011;15634;48.766;2.272;2023-03-04T04:46:51;54.03;;;26.92;;
10226;SDS011;15634;48.766;2.272;2023-03-04T04:49:18;48.08;;;25.88;;
10226;SDS011;15634;48.766;2.272;2023-03-04T04:51:45;48.22;;;26.75;;
10226;SDS011;15634;48.766;2.272;2023-03-04T04:54:12;46.60;;;25.17;;
10226;SDS011;15634;48.766;2.272;2023-03-04T04:56:39;50.88;;;26.55;;
10226;SDS011;15634;48.766;2.272;2023-03-04T04:59:06;45.90;;;26.27;;
10226;SDS011;15634;48.766;2.272;2023-03-04T05:01:34;45.65;;;24.70;;
10226;SDS011;15634;48.766;2.272;2023-03-04T05:04:01;49.55;;;27.00;;
10226;SDS011;15634;48.766;2.272;2023-03-04T05:06:28;51.97;;;27.05;;
10226;SDS011;15634;48.766;2.272;2023-03-04T05:08:54;45.92;;;26.02;;
10226;SDS011;15634;48.766;2.272;2023-03-04T05:11:21;48.13;;;26.13;;
10226;SDS011;15634;48.766;2.272;2023-03-04T05:13:47;54.03;;;26.88;;
10226;SDS011;15634;48.766;2.272;2023-03-04T05:16:16;47.20;;;25.20;;
10226;SDS011;15634;48.766;2.272;2023-03-04T05:18:44;47.92;;;26.98;;
10226;SDS011;15634;48.766;2.272;2023-03-04T05:21:11;45.70;;;24.50;;
10226;SDS011;15634;48.766;2.272;2023-03-04T05:23:39;48.30;;;25.27;;
10226;SDS011;15634;48.766;2.272;2023-03-04T05:26:07;46.95;;;25.02;;
10226;SDS011;15634;48.766;2.272;2023-03-04T05:28:36;51.10;;;26.75;;
10226;SDS011;15634;48.766;2.272;2023-03-04T05:31:02;49.25;;;26.00;;
10226;SDS011;15634;48.766;2.272;2023-03-04T05:33:29;42.25;;;24.90;;
10226;SDS011;15634;48.766;2.272;2023-03-04T05:35:57;48.28;;;25.02;;
10226;SDS011;15634;48.766;2.272;2023-03-04T05:38:24;45.80;;;25.98;;
10226;SDS011;15634;48.766;2.272;2023-03-04T05:40:55;49.08;;;26.42;;
10226;SDS011;15634;48.766;2.272;2023-03-04T05:43:23;48.65;;;24.75;;
10226;SDS011;15634;48.766;2.272;2023-03-04T05:45:49;47.00;;;25.75;;
10226;SDS011;15634;48.766;2.272;2023-03-04T05:48:16;46.03;;;24.48;;
10226;SDS011;15634;48.766;2.272;2023-03-04T05:50:43;42.38;;;23.50;;
10226;SDS011;15634;48.766;2.272;2023-03-04T05:53:11;51.22;;;25.15;;
10226;SDS011;15634;48.766;2.272;2023-03-04T05:55:37;46.88;;;23.77;;
10226;SDS011;15634;48.766;2.272;2023-03-04T05:58:04;46.90;;;24.40;;
10226;SDS011;15634;48.766;2.272;2023-03-04T06:00:31;45.58;;;24.13;;
10226;SDS011;15634;48.766;2.272;2023-03-04T06:02:58;46.63;;;25.55;;
10226;SDS011;15634;48.766;2.272;2023-03-04T06:05:25;48.22;;;24.77;;
10226;SDS011;15634;48.766;2.272;2023-03-04T06:07:52;44.75;;;24.85;;
10226;SDS011;15634;48.766;2.272;2023-03-04T06:10:20;45.47;;;24.38;;
10226;SDS011;15634;48.766;2.272;2023-03-04T06:12:46;48.05;;;25.10;;
10226;SDS011;15634;48.766;2.272;2023-03-04T06:15:13;45.95;;;24.75;;
10226;SDS011;15634;48.766;2.272;2023-03-04T06:17:40;44.35;;;24.80;;
10226;SDS011;15634;48.766;2.272;2023-03-04T06:20:08;45.08;;;24.50;;
10226;SDS011;15634;48.766;2.272;2023-03-04T06:22:36;48.60;;;26.02;;
10226;SDS011;15634;48.766;2.272;2023-03-04T06:25:03;47.60;;;25.25;;
10226;SDS011;15634;48.766;2.272;2023-03-04T06:27:31;48.08;;;25.50;;
10226;SDS011;15634;48.766;2.272;2023-03-04T06:29:58;49.90;;;26.63;;
10226;SDS011;15634;48.766;2.272;2023-03-04T06:32:25;47.40;;;25.23;;
10226;SDS011;15634;48.766;2.272;2023-03-04T06:34:52;43.63;;;24.88;;
10226;SDS011;15634;48.766;2.272;2023-03-04T06:37:19;47.75;;;24.80;;
10226;SDS011;15634;48.766;2.272;2023-03-04T06:39:46;49.90;;;25.75;;
10226;SDS011;15634;48.766;2.272;2023-03-04T06:42:13;47.25;;;26.10;;
10226;SDS011;15634;48.766;2.272;2023-03-04T06:44:41;47.50;;;25.95;;
10226;SDS011;15634;48.766;2.272;2023-03-04T06:47:07;49.20;;;25.00;;
10226;SDS011;15634;48.766;2.272;2023-03-04T06:49:34;42.03;;;23.52;;
10226;SDS011;15634;48.766;2.272;2023-03-04T06:52:01;48.28;;;24.85;;
10226;SDS011;15634;48.766;2.272;2023-03-04T06:54:27;46.42;;;23.55;;
10226;SDS011;15634;48.766;2.272;2023-03-04T06:56:54;47.53;;;24.05;;
10226;SDS011;15634;48.766;2.272;2023-03-04T06:59:21;44.33;;;23.27;;
10226;SDS011;15634;48.766;2.272;2023-03-04T07:01:50;45.63;;;23.15;;
10226;SDS011;15634;48.766;2.272;2023-03-04T07:04:16;39.95;;;22.13;;
10226;SDS011;15634;48.766;2.272;2023-03-04T07:06:43;39.92;;;22.45;;
10226;SDS011;15634;48.766;2.272;2023-03-04T07:09:10;41.10;;;21.45;;
10226;SDS011;15634;48.766;2.272;2023-03-04T07:11:36;38.75;;;20.13;;
10226;SDS011;15634;48.766;2.272;2023-03-04T07:14:03;39.97;;;19.40;;
10226;SDS011;15634;48.766;2.272;2023-03-04T07:16:30;37.85;;;20.35;;
10226;SDS011;15634;48.766;2.272;2023-03-04T07:18:58;35.00;;;18.98;;
10226;SDS011;15634;48.766;2.272;2023-03-04T07:21:25;41.13;;;19.80;;
10226;SDS011;15634;48.766;2.272;2023-03-04T07:23:51;36.17;;;18.83;;
10226;SDS011;15634;48.766;2.272;2023-03-04T07:26:18;36.38;;;20.35;;
10226;SDS011;15634;48.766;2.272;2023-03-04T07:28:45;39.03;;;20.45;;
10226;SDS011;15634;48.766;2.272;2023-03-04T07:31:13;36.78;;;19.02;;
10226;SDS011;15634;48.766;2.272;2023-03-04T07:36:13;33.20;;;17.98;;
10226;SDS011;15634;48.766;2.272;2023-03-04T07:38:41;33.63;;;18.60;;
10226;SDS011;15634;48.766;2.272;2023-03-04T07:41:09;36.08;;;19.23;;
10226;SDS011;15634;48.766;2.272;2023-03-04T07:43:36;34.92;;;18.63;;
10226;SDS011;15634;48.766;2.272;2023-03-04T07:46:02;39.08;;;18.88;;
10226;SDS011;15634;48.766;2.272;2023-03-04T07:48:29;34.92;;;19.15;;
10226;SDS011;15634;48.766;2.272;2023-03-04T07:51:03;33.03;;;18.35;;
10226;SDS011;15634;48.766;2.272;2023-03-04T07:53:32;34.75;;;17.83;;
10226;SDS011;15634;48.766;2.272;2023-03-04T07:55:59;36.20;;;18.17;;
10226;SDS011;15634;48.766;2.272;2023-03-04T07:58:26;33.72;;;18.95;;
10226;SDS011;15634;48.766;2.272;2023-03-04T08:00:53;41.33;;;18.75;;
10226;SDS011;15634;48.766;2.272;2023-03-04T08:03:19;33.75;;;17.80;;
10226;SDS011;15634;48.766;2.272;2023-03-04T08:05:47;30.58;;;17.88;;
10226;SDS011;15634;48.766;2.272;2023-03-04T08:08:15;36.47;;;17.75;;
10226;SDS011;15634;48.766;2.272;2023-03-04T08:10:43;34.70;;;18.58;;
10226;SDS011;15634;48.766;2.272;2023-03-04T08:13:10;26.88;;;17.75;;
10226;SDS011;15634;48.766;2.272;2023-03-04T08:15:38;39.53;;;18.48;;
10226;SDS011;15634;48.766;2.272;2023-03-04T08:18:06;32.67;;;17.25;;
10226;SDS011;15634;48.766;2.272;2023-03-04T08:20:32;31.67;;;17.98;;
10226;SDS011;15634;48.766;2.272;2023-03-04T08:22:59;34.72;;;18.27;;
10226;SDS011;15634;48.766;2.272;2023-03-04T08:25:26;35.70;;;18.85;;
10226;SDS011;15634;48.766;2.272;2023-03-04T08:27:54;34.47;;;18.77;;
10226;SDS011;15634;48.766;2.272;2023-03-04T08:30:21;36.33;;;19.52;;
10226;SDS011;15634;48.766;2.272;2023-03-04T08:32:48;31.52;;;18.52;;
10226;SDS011;15634;48.766;2.272;2023-03-04T08:35:14;37.65;;;18.50;;
10226;SDS011;15634;48.766;2.272;2023-03-04T08:37:41;37.55;;;18.30;;
10226;SDS011;15634;48.766;2.272;2023-03-04T08:40:09;39.45;;;19.42;;
10226;SDS011;15634;48.766;2.272;2023-03-04T08:42:37;40.08;;;19.85;;
10226;SDS011;15634;48.766;2.272;2023-03-04T08:45:06;35.97;;;19.27;;
10226;SDS011;15634;48.766;2.272;2023-03-04T08:47:33;35.05;;;19.77;;
10226;SDS011;15634;48.766;2.272;2023-03-04T08:50:00;34.33;;;19.05;;
10226;SDS011;15634;48.766;2.272;2023-03-04T08:52:27;33.58;;;18.38;;
10226;SDS011;15634;48.766;2.272;2023-03-04T08:54:54;32.80;;;17.80;;
10226;SDS011;15634;48.766;2.272;2023-03-04T08:57:21;36.22;;;18.05;;
10226;SDS011;15634;48.766;2.272;2023-03-04T08:59:48;36.92;;;18.90;;
10226;SDS011;15634;48.766;2.272;2023-03-04T09:02:16;34.78;;;18.35;;
10226;SDS011;15634;48.766;2.272;2023-03-04T09:04:42;36.55;;;18.83;;
10226;SDS011;15634;48.766;2.272;2023-03-04T09:07:09;35.88;;;17.88;;
10226;SDS011;15634;48.766;2.272;2023-03-04T09:09:36;36.85;;;18.75;;
10226;SDS011;15634;48.766;2.272;2023-03-04T09:12:03;31.70;;;18.17;;
10226;SDS011;15634;48.766;2.272;2023-03-04T09:14:30;40.42;;;19.45;;
10226;SDS011;15634;48.766;2.272;2023-03-04T09:16:59;29.60;;;15.88;;
10226;SDS011;15634;48.766;2.272;2023-03-04T09:19:27;34.67;;;14.85;;
10226;SDS011;15634;48.766;2.272;2023-03-04T09:21:54;31.13;;;13.68;;
10226;SDS011;15634;48.766;2.272;2023-03-04T09:24:23;25.88;;;13.20;;
10226;SDS011;15634;48.766;2.272;2023-03-04T09:26:50;25.40;;;12.98;;
10226;SDS011;15634;48.766;2.272;2023-03-04T09:29:16;29.83;;;13.82;;
10226;SDS011;15634;48.766;2.272;2023-03-04T09:31:43;20.25;;;10.55;;
10226;SDS011;15634;48.766;2.272;2023-03-04T09:34:10;23.30;;;10.63;;
10226;SDS011;15634;48.766;2.272;2023-03-04T09:36:39;21.98;;;12.00;;
10226;SDS011;15634;48.766;2.272;2023-03-04T09:39:05;23.90;;;11.57;;
10226;SDS011;15634;48.766;2.272;2023-03-04T09:41:34;25.63;;;11.68;;
10226;SDS011;15634;48.766;2.272;2023-03-04T09:44:03;24.70;;;11.70;;
10226;SDS011;15634;48.766;2.272;2023-03-04T09:46:33;23.08;;;11.27;;
10226;SDS011;15634;48.766;2.272;2023-03-04T09:49:03;22.85;;;10.23;;
10226;SDS011;15634;48.766;2.272;2023-03-04T09:51:36;21.67;;;11.00;;
10226;SDS011;15634;48.766;2.272;2023-03-04T09:54:13;30.15;;;10.80;;
10226;SDS011;15634;48.766;2.272;2023-03-04T09:56:43;21.17;;;10.98;;
10226;SDS011;15634;48.766;2.272;2023-03-04T09:59:13;21.05;;;11.70;;
10226;SDS011;15634;48.766;2.272;2023-03-04T10:01:44;27.05;;;11.65;;
10226;SDS011;15634;48.766;2.272;2023-03-04T10:04:14;30.75;;;12.57;;
10226;SDS011;15634;48.766;2.272;2023-03-04T10:06:45;25.50;;;12.30;;
10226;SDS011;15634;48.766;2.272;2023-03-04T10:09:18;29.40;;;12.38;;
10226;SDS011;15634;48.766;2.272;2023-03-04T10:11:49;25.10;;;12.40;;
10226;SDS011;15634;48.766;2.272;2023-03-04T10:14:27;24.15;;;11.38;;
10226;SDS011;15634;48.766;2.272;2023-03-04T10:16:59;27.15;;;13.85;;
10226;SDS011;15634;48.766;2.272;2023-03-04T10:19:33;26.42;;;12.68;;
10226;SDS011;15634;48.766;2.272;2023-03-04T10:22:12;27.83;;;14.23;;
10226;SDS011;15634;48.766;2.272;2023-03-04T10:24:42;29.27;;;14.45;;
10226;SDS011;15634;48.766;2.272;2023-03-04T10:27:11;28.77;;;13.65;;
10226;SDS011;15634;48.766;2.272;2023-03-04T10:29:39;29.17;;;14.02;;
10226;SDS011;15634;48.766;2.272;2023-03-04T10:32:07;29.75;;;14.18;;
10226;SDS011;15634;48.766;2.272;2023-03-04T10:34:36;29.48;;;14.75;;
10226;SDS011;15634;48.766;2.272;2023-03-04T10:37:04;32.60;;;14.43;;
10226;SDS011;15634;48.766;2.272;2023-03-04T10:39:34;33.60;;;14.82;;
10226;SDS011;15634;48.766;2.272;2023-03-04T10:42:03;30.67;;;14.77;;
10226;SDS011;15634;48.766;2.272;2023-03-04T10:44:31;31.58;;;15.07;;
10226;SDS011;15634;48.766;2.272;2023-03-04T10:46:59;29.80;;;16.17;;
10226;SDS011;15634;48.766;2.272;2023-03-04T10:49:27;31.13;;;15.45;;
10226;SDS011;15634;48.766;2.272;2023-03-04T10:52:00;34.63;;;16.48;;
10226;SDS011;15634;48.766;2.272;2023-03-04T10:54:28;33.53;;;16.27;;
10226;SDS011;15634;48.766;2.272;2023-03-04T10:56:59;35.75;;;15.48;;
10226;SDS011;15634;48.766;2.272;2023-03-04T11:02:13;36.05;;;14.25;;
10226;SDS011;15634;48.766;2.272;2023-03-04T11:04:49;30.05;;;14.80;;
10226;SDS011;15634;48.766;2.272;2023-03-04T11:07:18;31.92;;;14.95;;
10226;SDS011;15634;48.766;2.272;2023-03-04T11:09:44;37.95;;;15.60;;
10226;SDS011;15634;48.766;2.272;2023-03-04T11:12:14;27.75;;;14.48;;
10226;SDS011;15634;48.766;2.272;2023-03-04T11:14:44;26.08;;;14.23;;
10226;SDS011;15634;48.766;2.272;2023-03-04T11:17:20;32.83;;;15.20;;
10226;SDS011;15634;48.766;2.272;2023-03-04T11:19:50;29.00;;;15.73;;
10226;SDS011;15634;48.766;2.272;2023-03-04T11:22:20;32.13;;;15.55;;
10226;SDS011;15634;48.766;2.272;2023-03-04T11:24:53;33.17;;;15.15;;
10226;SDS011;15634;48.766;2.272;2023-03-04T11:27:24;33.20;;;15.40;;
10226;SDS011;15634;48.766;2.272;2023-03-04T11:29:57;30.15;;;14.25;;
10226;SDS011;15634;48.766;2.272;2023-03-04T11:32:27;27.05;;;14.30;;
10226;SDS011;15634;48.766;2.272;2023-03-04T11:34:56;27.33;;;13.00;;
10226;SDS011;15634;48.766;2.272;2023-03-04T11:37:27;29.15;;;14.40;;
10226;SDS011;15634;48.766;2.272;2023-03-04T11:39:56;31.65;;;15.02;;
10226;SDS011;15634;48.766;2.272;2023-03-04T11:42:32;28.05;;;13.95;;
10226;SDS011;15634;48.766;2.272;2023-03-04T11:45:03;29.77;;;13.15;;
10226;SDS011;15634;48.766;2.272;2023-03-04T11:47:37;29.25;;;14.60;;
10226;SDS011;15634;48.766;2.272;2023-03-04T11:53:07;30.63;;;14.85;;
10226;SDS011;15634;48.766;2.272;2023-03-04T11:55:44;34.90;;;14.52;;
10226;SDS011;15634;48.766;2.272;2023-03-04T11:58:19;31.98;;;13.90;;
10226;SDS011;15634;48.766;2.272;2023-03-04T12:03:30;31.45;;;13.98;;
10226;SDS011;15634;48.766;2.272;2023-03-04T12:06:08;31.23;;;14.40;;
10226;SDS011;15634;48.766;2.272;2023-03-04T12:08:40;31.58;;;15.43;;
10226;SDS011;15634;48.766;2.272;2023-03-04T12:11:20;28.90;;;14.52;;
10226;SDS011;15634;48.766;2.272;2023-03-04T12:14:01;30.90;;;14.73;;
10226;SDS011;15634;48.766;2.272;2023-03-04T12:16:43;28.92;;;13.45;;
10226;SDS011;15634;48.766;2.272;2023-03-04T12:19:21;32.63;;;15.48;;
10226;SDS011;15634;48.766;2.272;2023-03-04T12:21:58;37.25;;;16.45;;
10226;SDS011;15634;48.766;2.272;2023-03-04T12:24:40;33.33;;;15.02;;
10226;SDS011;15634;48.766;2.272;2023-03-04T12:27:21;34.53;;;14.65;;
10226;SDS011;15634;48.766;2.272;2023-03-04T12:29:57;31.35;;;14.02;;
10226;SDS011;15634;48.766;2.272;2023-03-04T12:32:31;28.33;;;12.73;;
10226;SDS011;15634;48.766;2.272;2023-03-04T12:35:07;26.10;;;13.00;;
10226;SDS011;15634;48.766;2.272;2023-03-04T12:37:43;28.77;;;14.00;;
10226;SDS011;15634;48.766;2.272;2023-03-04T12:40:32;31.58;;;14.35;;
10226;SDS011;15634;48.766;2.272;2023-03-04T12:43:07;28.83;;;13.65;;
10226;SDS011;15634;48.766;2.272;2023-03-04T12:45:51;31.60;;;15.07;;
10226;SDS011;15634;48.766;2.272;2023-03-04T12:48:26;26.98;;;14.00;;
10226;SDS011;15634;48.766;2.272;2023-03-04T12:51:02;32.15;;;14.60;;
10226;SDS011;15634;48.766;2.272;2023-03-04T12:53:39;38.40;;;15.48;;
10226;SDS011;15634;48.766;2.272;2023-03-04T12:56:14;31.13;;;14.68;;
10226;SDS011;15634;48.766;2.272;2023-03-04T12:58:48;29.67;;;13.18;;
10226;SDS011;15634;48.766;2.272;2023-03-04T13:01:17;26.05;;;12.38;;
10226;SDS011;15634;48.766;2.272;2023-03-04T13:03:51;30.98;;;14.55;;
10226;SDS011;15634;48.766;2.272;2023-03-04T13:06:24;27.08;;;13.05;;
10226;SDS011;15634;48.766;2.272;2023-03-04T13:08:58;29.50;;;13.60;;
10226;SDS011;15634;48.766;2.272;2023-03-04T13:11:37;26.50;;;12.75;;
10226;SDS011;15634;48.766;2.272;2023-03-04T13:14:07;28.58;;;12.60;;
10226;SDS011;15634;48.766;2.272;2023-03-04T13:16:50;23.77;;;11.50;;
10226;SDS011;15634;48.766;2.272;2023-03-04T13:25:31;25.95;;;11.02;;
10226;SDS011;15634;48.766;2.272;2023-03-04T13:31:10;25.85;;;12.27;;
10226;SDS011;15634;48.766;2.272;2023-03-04T13:33:45;22.80;;;11.85;;
10226;SDS011;15634;48.766;2.272;2023-03-04T13:39:30;21.80;;;10.48;;
10226;SDS011;15634;48.766;2.272;2023-03-04T13:42:00;20.58;;;10.45;;
10226;SDS011;15634;48.766;2.272;2023-03-04T13:47:26;27.88;;;12.43;;
10226;SDS011;15634;48.766;2.272;2023-03-04T13:53:21;21.27;;;9.47;;
10226;SDS011;15634;48.766;2.272;2023-03-04T13:56:03;19.63;;;9.15;;
10226;SDS011;15634;48.766;2.272;2023-03-04T13:58:32;20.13;;;9.82;;
10226;SDS011;15634;48.766;2.272;2023-03-04T14:00:59;23.05;;;10.13;;
10226;SDS011;15634;48.766;2.272;2023-03-04T14:03:26;18.05;;;8.88;;
10226;SDS011;15634;48.766;2.272;2023-03-04T14:08:53;20.40;;;8.85;;
10226;SDS011;15634;48.766;2.272;2023-03-04T14:11:23;23.77;;;9.57;;
10226;SDS011;15634;48.766;2.272;2023-03-04T14:13:56;21.75;;;9.32;;
10226;SDS011;15634;48.766;2.272;2023-03-04T14:16:25;24.77;;;9.27;;
10226;SDS011;15634;48.766;2.272;2023-03-04T14:18:56;20.13;;;8.80;;
10226;SDS011;15634;48.766;2.272;2023-03-04T14:21:24;17.95;;;8.45;;
10226;SDS011;15634;48.766;2.272;2023-03-04T14:24:00;21.80;;;8.70;;
10226;SDS011;15634;48.766;2.272;2023-03-04T14:26:28;20.33;;;9.77;;
10226;SDS011;15634;48.766;2.272;2023-03-04T14:28:55;18.23;;;8.07;;
10226;SDS011;15634;48.766;2.272;2023-03-04T14:31:25;20.60;;;9.15;;
10226;SDS011;15634;48.766;2.272;2023-03-04T14:33:54;23.02;;;9.77;;
10226;SDS011;15634;48.766;2.272;2023-03-04T14:36:26;18.88;;;8.93;;
10226;SDS011;15634;48.766;2.272;2023-03-04T14:38:55;21.50;;;9.10;;
10226;SDS011;15634;48.766;2.272;2023-03-04T14:41:25;20.35;;;8.32;;
10226;SDS011;15634;48.766;2.272;2023-03-04T14:43:55;18.73;;;7.63;;
10226;SDS011;15634;48.766;2.272;2023-03-04T14:46:28;15.18;;;8.07;;
10226;SDS011;15634;48.766;2.272;2023-03-04T14:48:56;19.80;;;7.88;;
10226;SDS011;15634;48.766;2.272;2023-03-04T14:51:41;20.20;;;7.13;;
10226;SDS011;15634;48.766;2.272;2023-03-04T14:56:58;15.52;;;7.07;;
10226;SDS011;15634;48.766;2.272;2023-03-04T14:59:29;15.65;;;6.50;;
10226;SDS011;15634;48.766;2.272;2023-03-04T15:04:49;17.88;;;8.02;;
10226;SDS011;15634;48.766;2.272;2023-03-04T15:07:17;16.30;;;7.15;;
10226;SDS011;15634;48.766;2.272;2023-03-04T15:09:49;17.63;;;8.18;;
10226;SDS011;15634;48.766;2.272;2023-03-04T15:12:24;14.25;;;6.68;;